หน้าหลัก
METAR-TAF:

METAR-TAF

ท่าอากาศยาน :

Schleswig-Jagel, เยอรมนี

ละติจูด: 54-28N, ลองจิจูด: 009-31E, ความสูง: 22 ม.

การสังเกตสภาพอากาศปัจจุบัน

รายงานได้ทำขึ้นเมื่อ 19 นาทีที่แล้ว ณ เวลา 04:20 UTC
ลม 3 นอตจากใต้
อุณหภูมิ 11°C
ความชื้น 94%
ความกดอากาศ 1016 hPa
ทัศนวิสัย 10 กม. หรือมากกว่า
มีเมฆกระจายเป็นบางส่วนที่ความสูง 2500 ฟุต

METAR: ETNS 250420Z 19003KT 9999 SCT025 11/10 Q1016 BLU+BLU+

เวลา: 06:39 (04:39 UTC)

การพยากรณ์

รายงานได้ทำขึ้นเมื่อ 15 ชั่วโมงและ 14 นาทีที่แล้ว ณ เวลา 13:25 UTC
การพยากรณ์มีผลตั้งแต่วันที่ 24 ณ เวลา 14 UTC จนถึงวันที่ 24 ณ เวลา 23 UTC
ลม 15 นอตจากตะวันตก/ตะวันตกเฉียงเหนือโดยมีลมกระโชกได้ถึง25 นอต
ทัศนวิสัย 10 กม. หรือมากกว่า
มีเมฆน้อยที่ความสูง 3500 ฟุต

TAF: ETNS 241325Z 2414/2423 30015G25KT 9999 NSW FEW035

สังเกตการณ์สภาพอากาศและพยากรณ์อากาศของสนามบินมากกว่า 4000 แห่ง (รายงาน METAR และ TAF).

สถานีที่ดูได้จะแสดงไว้ด้วยจุดสีเหลืองและสีแดงบนแผนที่.

เลื่อนเมาส์ไปเหนือจุดเพื่อดูชื่อสถานี.

แล้วคลิกเพื่อดูสังเกตการณ์และการพยากรณ์สภาพอากาศ.

ในการเปลี่ยนแผนที่: คลิกที่ปุ่มสีเขียวที่มีกากบาทสีดำเพื่อซูมเข้า; ที่ปุ่มสีเขียวที่มีขีดเพื่อซูมออก; หรือที่ลูกศรสีเขียวเพื่อไปยังแผนที่ที่อยู่ติดกัน.


METAR-TAF: